Terminal Aerodrome Forecast
Issued by NWS Twin Cities, MN

Home | Current Version | Previous Version | Text Only | Print | Product List | Glossary On
Versions: 1 2 3 4 5 6 7 8 9 10 11 12 13 14 15 16 17 18 19
000
FTUS43 KMPX 190500
TAFSTC
TAF
KSTC 190538Z 1906/2006 10009KT P6SM SCT060 BKN150
     FM190900 15014G23KT P6SM VCSH OVC060
      TEMPO 1910/1914 6SM -SHRA BKN040 OVC060
     FM191700 20013G18KT P6SM SCT040 BKN050
     FM192200 23011KT P6SM SCT100
     FM200300 24005KT P6SM SKC=

USA.gov is the U.S. government's official web portal to all federal, state and local government web resources and services.